sensor_id;sensor_type;location;lat;lon;timestamp;P1;durP1;ratioP1;P2;durP2;ratioP2
36651;SDS011;53334;51.976;20.144;2022-11-18T00:01:10;5.30;;;2.63;;
36651;SDS011;53334;51.976;20.144;2022-11-18T00:03:46;7.07;;;2.95;;
36651;SDS011;53334;51.976;20.144;2022-11-18T00:06:20;5.93;;;2.90;;
36651;SDS011;53334;51.976;20.144;2022-11-18T00:08:57;3.85;;;2.90;;
36651;SDS011;53334;51.976;20.144;2022-11-18T00:11:32;5.60;;;3.42;;
36651;SDS011;53334;51.976;20.144;2022-11-18T00:14:24;8.07;;;3.28;;
36651;SDS011;53334;51.976;20.144;2022-11-18T00:16:59;5.80;;;2.90;;
36651;SDS011;53334;51.976;20.144;2022-11-18T00:19:35;7.20;;;2.80;;
36651;SDS011;53334;51.976;20.144;2022-11-18T00:22:10;7.95;;;3.10;;
36651;SDS011;53334;51.976;20.144;2022-11-18T00:24:45;2.95;;;2.40;;
36651;SDS011;53334;51.976;20.144;2022-11-18T00:29:54;3.30;;;2.78;;
36651;SDS011;53334;51.976;20.144;2022-11-18T00:32:28;7.15;;;3.13;;
36651;SDS011;53334;51.976;20.144;2022-11-18T00:37:35;7.23;;;2.90;;
36651;SDS011;53334;51.976;20.144;2022-11-18T00:40:09;5.50;;;2.88;;
36651;SDS011;53334;51.976;20.144;2022-11-18T00:42:44;3.80;;;2.83;;
36651;SDS011;53334;51.976;20.144;2022-11-18T00:45:24;4.85;;;2.75;;
36651;SDS011;53334;51.976;20.144;2022-11-18T00:47:58;6.75;;;2.80;;
36651;SDS011;53334;51.976;20.144;2022-11-18T00:50:32;6.07;;;2.92;;
36651;SDS011;53334;51.976;20.144;2022-11-18T00:55:40;4.20;;;2.83;;
36651;SDS011;53334;51.976;20.144;2022-11-18T00:58:14;9.02;;;2.53;;
36651;SDS011;53334;51.976;20.144;2022-11-18T01:00:50;6.90;;;2.95;;
36651;SDS011;53334;51.976;20.144;2022-11-18T01:03:26;3.05;;;2.47;;
36651;SDS011;53334;51.976;20.144;2022-11-18T01:06:00;5.45;;;3.08;;
36651;SDS011;53334;51.976;20.144;2022-11-18T01:11:07;4.33;;;2.43;;
36651;SDS011;53334;51.976;20.144;2022-11-18T01:13:59;3.47;;;2.45;;
36651;SDS011;53334;51.976;20.144;2022-11-18T01:19:07;9.02;;;2.05;;
36651;SDS011;53334;51.976;20.144;2022-11-18T01:24:15;3.28;;;2.65;;
36651;SDS011;53334;51.976;20.144;2022-11-18T01:26:49;7.90;;;2.72;;
36651;SDS011;53334;51.976;20.144;2022-11-18T01:29:22;2.88;;;2.25;;
36651;SDS011;53334;51.976;20.144;2022-11-18T01:34:51;7.05;;;2.72;;
36651;SDS011;53334;51.976;20.144;2022-11-18T01:39:58;6.70;;;2.80;;
36651;SDS011;53334;51.976;20.144;2022-11-18T01:42:33;6.15;;;2.95;;
36651;SDS011;53334;51.976;20.144;2022-11-18T01:47:53;5.53;;;3.00;;
36651;SDS011;53334;51.976;20.144;2022-11-18T01:50:30;5.82;;;3.28;;
36651;SDS011;53334;51.976;20.144;2022-11-18T01:53:06;6.47;;;3.30;;
36651;SDS011;53334;51.976;20.144;2022-11-18T01:55:44;5.10;;;3.28;;
36651;SDS011;53334;51.976;20.144;2022-11-18T01:58:21;4.40;;;2.38;;
36651;SDS011;53334;51.976;20.144;2022-11-18T02:00:58;6.32;;;3.33;;
36651;SDS011;53334;51.976;20.144;2022-11-18T02:03:34;3.50;;;2.55;;
36651;SDS011;53334;51.976;20.144;2022-11-18T02:06:09;5.40;;;2.85;;
36651;SDS011;53334;51.976;20.144;2022-11-18T02:08:44;15.02;;;3.50;;
36651;SDS011;53334;51.976;20.144;2022-11-18T02:11:18;7.10;;;3.35;;
36651;SDS011;53334;51.976;20.144;2022-11-18T02:14:09;12.93;;;3.53;;
36651;SDS011;53334;51.976;20.144;2022-11-18T02:16:47;13.85;;;3.17;;
36651;SDS011;53334;51.976;20.144;2022-11-18T02:19:40;7.10;;;3.22;;
36651;SDS011;53334;51.976;20.144;2022-11-18T02:22:35;6.63;;;3.25;;
36651;SDS011;53334;51.976;20.144;2022-11-18T02:25:28;4.45;;;2.90;;
36651;SDS011;53334;51.976;20.144;2022-11-18T02:28:13;8.13;;;4.53;;
36651;SDS011;53334;51.976;20.144;2022-11-18T02:31:10;5.70;;;3.90;;
36651;SDS011;53334;51.976;20.144;2022-11-18T02:33:51;4.68;;;3.50;;
36651;SDS011;53334;51.976;20.144;2022-11-18T02:36:30;7.30;;;2.63;;
36651;SDS011;53334;51.976;20.144;2022-11-18T02:39:12;6.65;;;3.35;;
36651;SDS011;53334;51.976;20.144;2022-11-18T02:41:49;5.45;;;3.35;;
36651;SDS011;53334;51.976;20.144;2022-11-18T02:44:28;6.07;;;3.38;;
36651;SDS011;53334;51.976;20.144;2022-11-18T02:47:05;4.18;;;3.20;;
36651;SDS011;53334;51.976;20.144;2022-11-18T02:49:43;4.20;;;2.78;;
36651;SDS011;53334;51.976;20.144;2022-11-18T02:52:22;6.30;;;3.30;;
36651;SDS011;53334;51.976;20.144;2022-11-18T02:54:58;3.33;;;2.92;;
36651;SDS011;53334;51.976;20.144;2022-11-18T02:57:34;5.38;;;2.90;;
36651;SDS011;53334;51.976;20.144;2022-11-18T03:00:10;8.10;;;3.60;;
36651;SDS011;53334;51.976;20.144;2022-11-18T03:02:47;7.05;;;3.70;;
36651;SDS011;53334;51.976;20.144;2022-11-18T03:05:22;5.93;;;3.30;;
36651;SDS011;53334;51.976;20.144;2022-11-18T03:08:09;5.30;;;3.80;;
36651;SDS011;53334;51.976;20.144;2022-11-18T03:10:48;6.85;;;3.40;;
36651;SDS011;53334;51.976;20.144;2022-11-18T03:13:29;4.93;;;3.90;;
36651;SDS011;53334;51.976;20.144;2022-11-18T03:16:09;6.68;;;4.32;;
36651;SDS011;53334;51.976;20.144;2022-11-18T03:18:49;5.72;;;3.20;;
36651;SDS011;53334;51.976;20.144;2022-11-18T03:21:29;5.10;;;3.25;;
36651;SDS011;53334;51.976;20.144;2022-11-18T03:24:06;4.70;;;3.28;;
36651;SDS011;53334;51.976;20.144;2022-11-18T03:26:47;8.65;;;3.83;;
36651;SDS011;53334;51.976;20.144;2022-11-18T03:29:27;5.63;;;3.67;;
36651;SDS011;53334;51.976;20.144;2022-11-18T03:32:05;8.23;;;3.33;;
36651;SDS011;53334;51.976;20.144;2022-11-18T03:34:45;7.93;;;3.97;;
36651;SDS011;53334;51.976;20.144;2022-11-18T03:37:21;5.05;;;3.60;;
36651;SDS011;53334;51.976;20.144;2022-11-18T03:39:58;8.63;;;3.83;;
36651;SDS011;53334;51.976;20.144;2022-11-18T03:42:36;8.77;;;3.92;;
36651;SDS011;53334;51.976;20.144;2022-11-18T03:45:16;6.35;;;3.75;;
36651;SDS011;53334;51.976;20.144;2022-11-18T03:47:54;8.27;;;3.28;;
36651;SDS011;53334;51.976;20.144;2022-11-18T03:50:35;9.40;;;4.40;;
36651;SDS011;53334;51.976;20.144;2022-11-18T03:53:12;5.80;;;3.75;;
36651;SDS011;53334;51.976;20.144;2022-11-18T03:55:49;4.25;;;3.78;;
36651;SDS011;53334;51.976;20.144;2022-11-18T03:58:27;5.60;;;3.67;;
36651;SDS011;53334;51.976;20.144;2022-11-18T04:01:08;6.25;;;3.35;;
36651;SDS011;53334;51.976;20.144;2022-11-18T04:03:45;7.38;;;4.03;;
36651;SDS011;53334;51.976;20.144;2022-11-18T04:06:23;9.80;;;3.90;;
36651;SDS011;53334;51.976;20.144;2022-11-18T04:09:02;4.68;;;3.40;;
36651;SDS011;53334;51.976;20.144;2022-11-18T04:11:43;5.15;;;3.90;;
36651;SDS011;53334;51.976;20.144;2022-11-18T04:14:36;8.52;;;4.10;;
36651;SDS011;53334;51.976;20.144;2022-11-18T04:17:13;5.78;;;3.22;;
36651;SDS011;53334;51.976;20.144;2022-11-18T04:19:48;5.13;;;3.45;;
36651;SDS011;53334;51.976;20.144;2022-11-18T04:22:23;7.97;;;4.03;;
36651;SDS011;53334;51.976;20.144;2022-11-18T04:24:57;4.68;;;3.15;;
36651;SDS011;53334;51.976;20.144;2022-11-18T04:30:05;5.73;;;3.40;;
36651;SDS011;53334;51.976;20.144;2022-11-18T04:32:40;6.47;;;3.67;;
36651;SDS011;53334;51.976;20.144;2022-11-18T04:35:14;5.60;;;3.90;;
36651;SDS011;53334;51.976;20.144;2022-11-18T04:37:49;3.83;;;3.08;;
36651;SDS011;53334;51.976;20.144;2022-11-18T04:40:23;7.20;;;3.92;;
36651;SDS011;53334;51.976;20.144;2022-11-18T04:45:31;7.97;;;3.53;;
36651;SDS011;53334;51.976;20.144;2022-11-18T04:50:38;7.78;;;4.07;;
36651;SDS011;53334;51.976;20.144;2022-11-18T04:53:13;4.15;;;3.10;;
36651;SDS011;53334;51.976;20.144;2022-11-18T04:55:48;5.78;;;4.00;;
36651;SDS011;53334;51.976;20.144;2022-11-18T04:58:22;6.43;;;3.60;;
36651;SDS011;53334;51.976;20.144;2022-11-18T05:03:29;7.80;;;3.10;;
36651;SDS011;53334;51.976;20.144;2022-11-18T05:08:38;4.18;;;3.10;;
36651;SDS011;53334;51.976;20.144;2022-11-18T05:11:12;4.85;;;3.50;;
36651;SDS011;53334;51.976;20.144;2022-11-18T05:14:03;5.60;;;3.20;;
36651;SDS011;53334;51.976;20.144;2022-11-18T05:19:11;5.60;;;3.38;;
36651;SDS011;53334;51.976;20.144;2022-11-18T05:21:45;5.28;;;3.05;;
36651;SDS011;53334;51.976;20.144;2022-11-18T05:26:55;6.55;;;3.38;;
36651;SDS011;53334;51.976;20.144;2022-11-18T05:32:02;6.03;;;3.87;;
36651;SDS011;53334;51.976;20.144;2022-11-18T05:34:37;8.18;;;3.28;;
36651;SDS011;53334;51.976;20.144;2022-11-18T05:37:11;8.05;;;3.85;;
36651;SDS011;53334;51.976;20.144;2022-11-18T05:39:47;7.35;;;3.38;;
36651;SDS011;53334;51.976;20.144;2022-11-18T05:42:21;7.97;;;3.78;;
36651;SDS011;53334;51.976;20.144;2022-11-18T05:45:12;6.60;;;3.45;;
36651;SDS011;53334;51.976;20.144;2022-11-18T05:47:46;5.93;;;3.35;;
36651;SDS011;53334;51.976;20.144;2022-11-18T05:50:35;7.90;;;3.42;;
36651;SDS011;53334;51.976;20.144;2022-11-18T05:53:10;4.32;;;3.22;;
36651;SDS011;53334;51.976;20.144;2022-11-18T05:58:21;8.25;;;3.85;;
36651;SDS011;53334;51.976;20.144;2022-11-18T06:00:55;5.90;;;2.50;;
36651;SDS011;53334;51.976;20.144;2022-11-18T06:03:35;5.60;;;3.08;;
36651;SDS011;53334;51.976;20.144;2022-11-18T06:06:12;4.88;;;2.90;;
36651;SDS011;53334;51.976;20.144;2022-11-18T06:08:50;6.53;;;2.47;;
36651;SDS011;53334;51.976;20.144;2022-11-18T06:11:30;8.50;;;2.95;;
36651;SDS011;53334;51.976;20.144;2022-11-18T06:14:10;4.13;;;2.70;;
36651;SDS011;53334;51.976;20.144;2022-11-18T06:16:49;6.85;;;3.10;;
36651;SDS011;53334;51.976;20.144;2022-11-18T06:19:27;6.07;;;3.05;;
36651;SDS011;53334;51.976;20.144;2022-11-18T06:22:02;9.43;;;2.95;;
36651;SDS011;53334;51.976;20.144;2022-11-18T06:24:36;6.97;;;3.40;;
36651;SDS011;53334;51.976;20.144;2022-11-18T06:27:13;4.93;;;2.83;;
36651;SDS011;53334;51.976;20.144;2022-11-18T06:29:47;5.10;;;2.85;;
36651;SDS011;53334;51.976;20.144;2022-11-18T06:34:55;4.75;;;3.20;;
36651;SDS011;53334;51.976;20.144;2022-11-18T06:37:29;10.82;;;3.15;;
36651;SDS011;53334;51.976;20.144;2022-11-18T06:42:38;8.77;;;3.35;;
36651;SDS011;53334;51.976;20.144;2022-11-18T06:45:29;10.25;;;3.75;;
36651;SDS011;53334;51.976;20.144;2022-11-18T06:50:37;15.93;;;3.60;;
36651;SDS011;53334;51.976;20.144;2022-11-18T06:55:44;6.20;;;2.70;;
36651;SDS011;53334;51.976;20.144;2022-11-18T06:58:20;5.40;;;3.40;;
36651;SDS011;53334;51.976;20.144;2022-11-18T07:00:53;4.30;;;2.70;;
36651;SDS011;53334;51.976;20.144;2022-11-18T07:03:27;7.00;;;3.05;;
36651;SDS011;53334;51.976;20.144;2022-11-18T07:08:35;6.13;;;2.77;;
36651;SDS011;53334;51.976;20.144;2022-11-18T07:11:10;6.60;;;3.13;;
36651;SDS011;53334;51.976;20.144;2022-11-18T07:13:48;8.85;;;2.55;;
36651;SDS011;53334;51.976;20.144;2022-11-18T07:16:22;6.72;;;3.03;;
36651;SDS011;53334;51.976;20.144;2022-11-18T07:18:57;5.80;;;2.53;;
36651;SDS011;53334;51.976;20.144;2022-11-18T07:21:31;8.00;;;2.70;;
36651;SDS011;53334;51.976;20.144;2022-11-18T07:24:06;6.65;;;2.78;;
36651;SDS011;53334;51.976;20.144;2022-11-18T07:26:41;5.57;;;2.50;;
36651;SDS011;53334;51.976;20.144;2022-11-18T07:29:16;6.03;;;3.10;;
36651;SDS011;53334;51.976;20.144;2022-11-18T07:31:50;3.30;;;2.47;;
36651;SDS011;53334;51.976;20.144;2022-11-18T07:36:58;5.37;;;2.57;;
36651;SDS011;53334;51.976;20.144;2022-11-18T07:42:05;3.80;;;2.83;;
36651;SDS011;53334;51.976;20.144;2022-11-18T07:44:42;6.68;;;3.10;;
36651;SDS011;53334;51.976;20.144;2022-11-18T07:47:16;3.38;;;2.53;;
36651;SDS011;53334;51.976;20.144;2022-11-18T07:52:23;9.73;;;2.78;;
36651;SDS011;53334;51.976;20.144;2022-11-18T07:57:31;7.97;;;2.58;;
36651;SDS011;53334;51.976;20.144;2022-11-18T08:00:07;5.25;;;2.55;;
36651;SDS011;53334;51.976;20.144;2022-11-18T08:02:48;3.72;;;2.65;;
36651;SDS011;53334;51.976;20.144;2022-11-18T08:05:22;3.72;;;2.40;;
36651;SDS011;53334;51.976;20.144;2022-11-18T08:07:56;7.20;;;2.72;;
36651;SDS011;53334;51.976;20.144;2022-11-18T08:13:03;6.93;;;2.50;;
36651;SDS011;53334;51.976;20.144;2022-11-18T08:18:13;6.07;;;3.22;;
36651;SDS011;53334;51.976;20.144;2022-11-18T08:23:20;12.07;;;5.47;;
36651;SDS011;53334;51.976;20.144;2022-11-18T08:26:02;11.15;;;5.30;;
36651;SDS011;53334;51.976;20.144;2022-11-18T08:28:38;16.08;;;5.32;;
36651;SDS011;53334;51.976;20.144;2022-11-18T08:31:14;12.63;;;5.93;;
36651;SDS011;53334;51.976;20.144;2022-11-18T08:33:52;15.35;;;6.53;;
36651;SDS011;53334;51.976;20.144;2022-11-18T08:36:28;14.57;;;6.45;;
36651;SDS011;53334;51.976;20.144;2022-11-18T08:39:04;22.00;;;7.25;;
36651;SDS011;53334;51.976;20.144;2022-11-18T08:41:39;13.85;;;6.93;;
36651;SDS011;53334;51.976;20.144;2022-11-18T08:44:14;21.40;;;6.15;;
36651;SDS011;53334;51.976;20.144;2022-11-18T08:46:50;14.15;;;5.97;;
36651;SDS011;53334;51.976;20.144;2022-11-18T08:49:24;10.65;;;5.35;;
36651;SDS011;53334;51.976;20.144;2022-11-18T08:52:03;12.68;;;5.07;;
36651;SDS011;53334;51.976;20.144;2022-11-18T08:54:37;15.77;;;5.53;;
36651;SDS011;53334;51.976;20.144;2022-11-18T08:57:11;8.80;;;4.60;;
36651;SDS011;53334;51.976;20.144;2022-11-18T08:59:45;8.50;;;4.50;;
36651;SDS011;53334;51.976;20.144;2022-11-18T09:04:55;13.75;;;4.05;;
36651;SDS011;53334;51.976;20.144;2022-11-18T09:10:02;7.13;;;4.67;;
36651;SDS011;53334;51.976;20.144;2022-11-18T09:12:37;11.70;;;4.35;;
36651;SDS011;53334;51.976;20.144;2022-11-18T09:15:11;7.55;;;4.70;;
36651;SDS011;53334;51.976;20.144;2022-11-18T09:17:47;5.30;;;3.88;;
36651;SDS011;53334;51.976;20.144;2022-11-18T09:20:21;4.07;;;3.67;;
36651;SDS011;53334;51.976;20.144;2022-11-18T09:22:55;8.27;;;4.43;;
36651;SDS011;53334;51.976;20.144;2022-11-18T09:28:03;8.20;;;4.28;;
36651;SDS011;53334;51.976;20.144;2022-11-18T09:30:37;7.45;;;3.95;;
36651;SDS011;53334;51.976;20.144;2022-11-18T09:35:51;5.20;;;3.33;;
36651;SDS011;53334;51.976;20.144;2022-11-18T09:38:27;5.65;;;3.90;;
36651;SDS011;53334;51.976;20.144;2022-11-18T09:41:02;9.75;;;3.88;;
36651;SDS011;53334;51.976;20.144;2022-11-18T09:43:46;4.95;;;3.75;;
36651;SDS011;53334;51.976;20.144;2022-11-18T09:46:30;8.13;;;3.90;;
36651;SDS011;53334;51.976;20.144;2022-11-18T09:49:14;7.30;;;3.03;;
36651;SDS011;53334;51.976;20.144;2022-11-18T09:52:00;4.57;;;3.45;;
36651;SDS011;53334;51.976;20.144;2022-11-18T09:54:35;6.95;;;3.53;;
36651;SDS011;53334;51.976;20.144;2022-11-18T09:57:10;5.60;;;3.60;;
36651;SDS011;53334;51.976;20.144;2022-11-18T09:59:47;8.30;;;4.28;;
36651;SDS011;53334;51.976;20.144;2022-11-18T10:02:25;5.15;;;3.60;;
36651;SDS011;53334;51.976;20.144;2022-11-18T10:05:13;6.65;;;3.40;;
36651;SDS011;53334;51.976;20.144;2022-11-18T10:08:02;6.82;;;3.55;;
36651;SDS011;53334;51.976;20.144;2022-11-18T10:10:49;4.75;;;3.55;;
36651;SDS011;53334;51.976;20.144;2022-11-18T10:13:31;5.43;;;3.15;;
36651;SDS011;53334;51.976;20.144;2022-11-18T10:16:20;4.43;;;3.38;;
36651;SDS011;53334;51.976;20.144;2022-11-18T10:19:03;5.30;;;3.78;;
36651;SDS011;53334;51.976;20.144;2022-11-18T10:21:49;2.90;;;2.17;;
36651;SDS011;53334;51.976;20.144;2022-11-18T10:27:07;5.50;;;2.90;;
36651;SDS011;53334;51.976;20.144;2022-11-18T10:29:44;5.97;;;3.25;;
36651;SDS011;53334;51.976;20.144;2022-11-18T10:32:23;4.43;;;3.33;;
36651;SDS011;53334;51.976;20.144;2022-11-18T10:37:33;5.68;;;3.28;;
36651;SDS011;53334;51.976;20.144;2022-11-18T10:40:29;4.10;;;3.20;;
36651;SDS011;53334;51.976;20.144;2022-11-18T10:43:04;3.85;;;3.22;;
36651;SDS011;53334;51.976;20.144;2022-11-18T10:45:38;3.65;;;2.95;;
36651;SDS011;53334;51.976;20.144;2022-11-18T10:48:16;3.78;;;2.72;;
36651;SDS011;53334;51.976;20.144;2022-11-18T10:50:51;5.00;;;2.92;;
36651;SDS011;53334;51.976;20.144;2022-11-18T10:53:29;4.07;;;2.88;;
36651;SDS011;53334;51.976;20.144;2022-11-18T10:56:05;5.00;;;2.85;;
36651;SDS011;53334;51.976;20.144;2022-11-18T10:58:41;3.47;;;3.10;;
36651;SDS011;53334;51.976;20.144;2022-11-18T11:01:19;3.75;;;2.88;;
36651;SDS011;53334;51.976;20.144;2022-11-18T11:03:57;5.80;;;3.15;;
36651;SDS011;53334;51.976;20.144;2022-11-18T11:06:33;4.63;;;3.42;;
36651;SDS011;53334;51.976;20.144;2022-11-18T11:09:21;4.95;;;2.88;;
36651;SDS011;53334;51.976;20.144;2022-11-18T11:11:59;4.72;;;2.55;;
36651;SDS011;53334;51.976;20.144;2022-11-18T11:14:36;7.15;;;3.83;;
36651;SDS011;53334;51.976;20.144;2022-11-18T11:17:24;9.20;;;3.65;;
36651;SDS011;53334;51.976;20.144;2022-11-18T11:20:03;8.43;;;3.42;;
36651;SDS011;53334;51.976;20.144;2022-11-18T11:22:42;10.93;;;3.38;;
36651;SDS011;53334;51.976;20.144;2022-11-18T11:25:18;12.10;;;3.78;;
36651;SDS011;53334;51.976;20.144;2022-11-18T11:28:21;9.70;;;3.90;;
36651;SDS011;53334;51.976;20.144;2022-11-18T11:31:05;6.97;;;3.75;;
36651;SDS011;53334;51.976;20.144;2022-11-18T11:33:46;5.38;;;3.30;;
36651;SDS011;53334;51.976;20.144;2022-11-18T11:36:34;6.60;;;3.23;;
36651;SDS011;53334;51.976;20.144;2022-11-18T11:42:27;7.20;;;3.55;;
36651;SDS011;53334;51.976;20.144;2022-11-18T11:45:18;9.77;;;3.92;;
36651;SDS011;53334;51.976;20.144;2022-11-18T11:48:07;10.18;;;3.88;;
36651;SDS011;53334;51.976;20.144;2022-11-18T11:50:55;5.63;;;4.57;;
36651;SDS011;53334;51.976;20.144;2022-11-18T11:57:02;6.10;;;4.10;;
36651;SDS011;53334;51.976;20.144;2022-11-18T11:59:42;12.52;;;4.38;;
36651;SDS011;53334;51.976;20.144;2022-11-18T12:02:31;7.15;;;4.30;;
36651;SDS011;53334;51.976;20.144;2022-11-18T12:05:17;13.25;;;5.10;;
36651;SDS011;53334;51.976;20.144;2022-11-18T12:07:56;14.50;;;4.95;;
36651;SDS011;53334;51.976;20.144;2022-11-18T12:10:35;9.18;;;5.20;;
36651;SDS011;53334;51.976;20.144;2022-11-18T12:13:20;14.70;;;5.90;;
36651;SDS011;53334;51.976;20.144;2022-11-18T12:16:17;14.90;;;4.75;;
36651;SDS011;53334;51.976;20.144;2022-11-18T12:18:57;10.23;;;4.82;;
36651;SDS011;53334;51.976;20.144;2022-11-18T12:21:57;10.65;;;4.75;;
36651;SDS011;53334;51.976;20.144;2022-11-18T12:24:36;8.43;;;5.35;;
36651;SDS011;53334;51.976;20.144;2022-11-18T12:27:12;11.10;;;4.68;;
36651;SDS011;53334;51.976;20.144;2022-11-18T12:29:53;18.95;;;6.07;;
36651;SDS011;53334;51.976;20.144;2022-11-18T12:32:33;29.08;;;6.30;;
36651;SDS011;53334;51.976;20.144;2022-11-18T12:35:21;16.15;;;5.90;;
36651;SDS011;53334;51.976;20.144;2022-11-18T12:37:59;11.95;;;5.38;;
36651;SDS011;53334;51.976;20.144;2022-11-18T12:40:38;23.17;;;5.32;;
36651;SDS011;53334;51.976;20.144;2022-11-18T12:46:51;12.95;;;4.65;;
36651;SDS011;53334;51.976;20.144;2022-11-18T12:52:45;12.13;;;4.80;;
36651;SDS011;53334;51.976;20.144;2022-11-18T12:55:30;11.38;;;4.32;;
36651;SDS011;53334;51.976;20.144;2022-11-18T12:58:19;10.05;;;3.80;;
36651;SDS011;53334;51.976;20.144;2022-11-18T13:03:48;10.15;;;4.47;;
36651;SDS011;53334;51.976;20.144;2022-11-18T13:06:23;11.57;;;4.45;;
36651;SDS011;53334;51.976;20.144;2022-11-18T13:09:02;7.88;;;4.22;;
36651;SDS011;53334;51.976;20.144;2022-11-18T13:11:39;8.93;;;3.90;;
36651;SDS011;53334;51.976;20.144;2022-11-18T13:14:17;14.65;;;4.32;;
36651;SDS011;53334;51.976;20.144;2022-11-18T13:17:23;16.85;;;4.80;;
36651;SDS011;53334;51.976;20.144;2022-11-18T13:20:20;13.50;;;3.78;;
36651;SDS011;53334;51.976;20.144;2022-11-18T13:22:59;12.52;;;4.60;;
36651;SDS011;53334;51.976;20.144;2022-11-18T13:25:53;21.27;;;4.57;;
36651;SDS011;53334;51.976;20.144;2022-11-18T13:28:35;22.23;;;3.80;;
36651;SDS011;53334;51.976;20.144;2022-11-18T13:31:16;11.23;;;3.80;;
36651;SDS011;53334;51.976;20.144;2022-11-18T13:33:55;11.77;;;3.97;;
36651;SDS011;53334;51.976;20.144;2022-11-18T13:36:34;17.85;;;3.40;;
36651;SDS011;53334;51.976;20.144;2022-11-18T13:39:17;10.45;;;4.25;;
36651;SDS011;53334;51.976;20.144;2022-11-18T13:41:59;12.05;;;3.72;;
36651;SDS011;53334;51.976;20.144;2022-11-18T13:44:35;17.33;;;4.28;;
36651;SDS011;53334;51.976;20.144;2022-11-18T13:47:12;13.73;;;3.92;;
36651;SDS011;53334;51.976;20.144;2022-11-18T13:49:54;20.20;;;3.85;;
36651;SDS011;53334;51.976;20.144;2022-11-18T13:52:34;10.13;;;3.97;;
36651;SDS011;53334;51.976;20.144;2022-11-18T13:55:14;8.93;;;3.30;;
36651;SDS011;53334;51.976;20.144;2022-11-18T13:57:55;8.30;;;3.40;;
36651;SDS011;53334;51.976;20.144;2022-11-18T14:00:34;16.02;;;3.90;;
36651;SDS011;53334;51.976;20.144;2022-11-18T14:03:14;12.20;;;3.33;;
36651;SDS011;53334;51.976;20.144;2022-11-18T14:05:56;6.32;;;3.45;;
36651;SDS011;53334;51.976;20.144;2022-11-18T14:08:31;11.02;;;3.20;;
36651;SDS011;53334;51.976;20.144;2022-11-18T14:11:07;11.52;;;3.47;;
36651;SDS011;53334;51.976;20.144;2022-11-18T14:13:48;12.85;;;3.10;;
36651;SDS011;53334;51.976;20.144;2022-11-18T14:16:29;10.20;;;3.30;;
36651;SDS011;53334;51.976;20.144;2022-11-18T14:19:06;11.02;;;3.25;;
36651;SDS011;53334;51.976;20.144;2022-11-18T14:21:44;6.38;;;3.22;;
36651;SDS011;53334;51.976;20.144;2022-11-18T14:24:23;10.85;;;3.17;;
36651;SDS011;53334;51.976;20.144;2022-11-18T14:27:12;6.88;;;3.05;;
36651;SDS011;53334;51.976;20.144;2022-11-18T14:33:12;13.65;;;3.45;;
36651;SDS011;53334;51.976;20.144;2022-11-18T14:35:48;13.13;;;3.90;;
36651;SDS011;53334;51.976;20.144;2022-11-18T14:38:28;10.93;;;3.42;;
36651;SDS011;53334;51.976;20.144;2022-11-18T14:41:28;8.95;;;3.42;;
36651;SDS011;53334;51.976;20.144;2022-11-18T14:44:21;5.47;;;2.30;;
36651;SDS011;53334;51.976;20.144;2022-11-18T14:46:57;11.73;;;3.50;;
36651;SDS011;53334;51.976;20.144;2022-11-18T14:49:33;5.40;;;3.22;;
36651;SDS011;53334;51.976;20.144;2022-11-18T14:52:08;8.15;;;3.50;;
36651;SDS011;53334;51.976;20.144;2022-11-18T14:54:42;6.75;;;2.85;;
36651;SDS011;53334;51.976;20.144;2022-11-18T14:59:50;3.33;;;2.57;;
36651;SDS011;53334;51.976;20.144;2022-11-18T15:02:24;7.13;;;2.85;;
36651;SDS011;53334;51.976;20.144;2022-11-18T15:04:59;7.28;;;2.60;;
36651;SDS011;53334;51.976;20.144;2022-11-18T15:07:33;7.35;;;2.70;;
36651;SDS011;53334;51.976;20.144;2022-11-18T15:10:09;6.28;;;3.08;;
36651;SDS011;53334;51.976;20.144;2022-11-18T15:12:46;14.80;;;3.15;;
36651;SDS011;53334;51.976;20.144;2022-11-18T15:17:53;11.15;;;3.00;;
36651;SDS011;53334;51.976;20.144;2022-11-18T15:20:29;15.85;;;3.97;;
36651;SDS011;53334;51.976;20.144;2022-11-18T15:23:03;14.48;;;3.45;;
36651;SDS011;53334;51.976;20.144;2022-11-18T15:28:10;13.90;;;4.00;;
36651;SDS011;53334;51.976;20.144;2022-11-18T15:30:44;12.10;;;4.22;;
36651;SDS011;53334;51.976;20.144;2022-11-18T15:33:18;13.50;;;3.50;;
36651;SDS011;53334;51.976;20.144;2022-11-18T15:35:54;18.17;;;3.22;;
36651;SDS011;53334;51.976;20.144;2022-11-18T15:38:27;10.10;;;3.47;;
36651;SDS011;53334;51.976;20.144;2022-11-18T15:43:35;11.15;;;2.90;;
36651;SDS011;53334;51.976;20.144;2022-11-18T15:48:42;9.77;;;3.30;;
36651;SDS011;53334;51.976;20.144;2022-11-18T15:51:18;12.73;;;3.85;;
36651;SDS011;53334;51.976;20.144;2022-11-18T15:53:53;42.72;;;3.90;;
36651;SDS011;53334;51.976;20.144;2022-11-18T15:59:01;11.73;;;3.92;;
36651;SDS011;53334;51.976;20.144;2022-11-18T16:01:37;6.78;;;4.00;;
36651;SDS011;53334;51.976;20.144;2022-11-18T16:04:13;9.55;;;3.33;;
36651;SDS011;53334;51.976;20.144;2022-11-18T16:06:50;14.35;;;3.92;;
36651;SDS011;53334;51.976;20.144;2022-11-18T16:09:24;11.23;;;3.53;;
36651;SDS011;53334;51.976;20.144;2022-11-18T16:12:19;22.65;;;4.30;;
36651;SDS011;53334;51.976;20.144;2022-11-18T16:15:10;13.30;;;3.15;;
36651;SDS011;53334;51.976;20.144;2022-11-18T16:18:02;9.55;;;3.35;;
36651;SDS011;53334;51.976;20.144;2022-11-18T16:20:36;8.63;;;3.35;;
36651;SDS011;53334;51.976;20.144;2022-11-18T16:23:12;8.77;;;3.47;;
36651;SDS011;53334;51.976;20.144;2022-11-18T16:25:46;12.82;;;3.80;;
36651;SDS011;53334;51.976;20.144;2022-11-18T16:30:53;8.40;;;5.10;;
36651;SDS011;53334;51.976;20.144;2022-11-18T16:33:44;8.05;;;5.40;;
36651;SDS011;53334;51.976;20.144;2022-11-18T16:38:58;8.70;;;5.25;;
36651;SDS011;53334;51.976;20.144;2022-11-18T16:41:36;11.48;;;5.53;;
36651;SDS011;53334;51.976;20.144;2022-11-18T16:44:12;16.55;;;4.78;;
36651;SDS011;53334;51.976;20.144;2022-11-18T16:46:47;5.80;;;4.10;;
36651;SDS011;53334;51.976;20.144;2022-11-18T16:49:22;6.45;;;4.30;;
36651;SDS011;53334;51.976;20.144;2022-11-18T16:51:57;9.98;;;4.72;;
36651;SDS011;53334;51.976;20.144;2022-11-18T16:57:15;8.00;;;4.03;;
36651;SDS011;53334;51.976;20.144;2022-11-18T17:02:22;6.60;;;4.45;;
36651;SDS011;53334;51.976;20.144;2022-11-18T17:04:56;6.97;;;4.22;;
36651;SDS011;53334;51.976;20.144;2022-11-18T17:07:30;8.35;;;4.95;;
36651;SDS011;53334;51.976;20.144;2022-11-18T17:10:10;5.85;;;4.43;;
36651;SDS011;53334;51.976;20.144;2022-11-18T17:12:51;7.55;;;4.18;;
36651;SDS011;53334;51.976;20.144;2022-11-18T17:17:58;6.07;;;4.67;;
36651;SDS011;53334;51.976;20.144;2022-11-18T17:20:33;11.55;;;4.30;;
36651;SDS011;53334;51.976;20.144;2022-11-18T17:23:07;8.80;;;4.40;;
36651;SDS011;53334;51.976;20.144;2022-11-18T17:25:42;6.18;;;4.07;;
36651;SDS011;53334;51.976;20.144;2022-11-18T17:28:16;7.65;;;4.25;;
36651;SDS011;53334;51.976;20.144;2022-11-18T17:30:50;8.18;;;3.72;;
36651;SDS011;53334;51.976;20.144;2022-11-18T17:33:25;6.20;;;4.28;;
36651;SDS011;53334;51.976;20.144;2022-11-18T17:35:59;6.78;;;3.45;;
36651;SDS011;53334;51.976;20.144;2022-11-18T17:38:33;4.03;;;3.25;;
36651;SDS011;53334;51.976;20.144;2022-11-18T17:41:10;5.85;;;3.92;;
36651;SDS011;53334;51.976;20.144;2022-11-18T17:44:07;8.70;;;3.38;;
36651;SDS011;53334;51.976;20.144;2022-11-18T17:46:42;4.47;;;2.97;;
36651;SDS011;53334;51.976;20.144;2022-11-18T17:49:18;6.07;;;3.50;;
36651;SDS011;53334;51.976;20.144;2022-11-18T17:51:53;3.15;;;2.72;;
36651;SDS011;53334;51.976;20.144;2022-11-18T17:57:02;3.53;;;2.42;;
36651;SDS011;53334;51.976;20.144;2022-11-18T17:59:36;3.50;;;2.50;;